createdAt,value
2018-02-14T00:01:10.934Z,14.20
2018-02-14T00:03:39.342Z,15.68
2018-02-14T00:06:07.786Z,13.68
2018-02-14T00:08:36.273Z,15.10
2018-02-14T00:11:04.681Z,13.35
2018-02-14T00:13:33.073Z,12.75
2018-02-14T00:16:01.482Z,17.65
2018-02-14T00:18:29.874Z,14.35
2018-02-14T00:20:58.298Z,18.65
2018-02-14T00:23:26.726Z,17.00
2018-02-14T00:25:55.132Z,18.42
2018-02-14T00:28:23.538Z,11.98
2018-02-14T00:30:51.943Z,16.08
2018-02-14T00:33:20.359Z,18.05
2018-02-14T00:35:48.827Z,21.27
2018-02-14T00:38:17.216Z,18.60
2018-02-14T00:40:45.789Z,11.27
2018-02-14T00:43:14.169Z,14.80
2018-02-14T00:45:42.556Z,12.55
2018-02-14T00:48:11.115Z,18.95
2018-02-14T00:50:39.544Z,16.15
2018-02-14T00:53:08.121Z,11.95
2018-02-14T00:55:36.523Z,14.68
2018-02-14T00:58:05.153Z,14.15
2018-02-14T01:00:33.674Z,15.48
2018-02-14T01:03:02.078Z,14.52
2018-02-14T01:05:30.720Z,12.02
2018-02-14T01:07:59.143Z,12.57
2018-02-14T01:10:27.520Z,15.27
2018-02-14T01:12:55.964Z,12.27
2018-02-14T01:15:24.347Z,13.07
2018-02-14T01:17:52.767Z,15.20
2018-02-14T01:20:27.385Z,7.55
2018-02-14T01:22:55.920Z,9.27
2018-02-14T01:25:24.332Z,13.35
2018-02-14T01:27:52.731Z,14.13
2018-02-14T01:30:21.134Z,10.20
2018-02-14T01:32:49.535Z,9.27
2018-02-14T01:35:18.000Z,13.62
2018-02-14T01:37:46.410Z,9.90
2018-02-14T01:40:14.818Z,14.20
2018-02-14T01:42:43.215Z,21.15
2018-02-14T01:45:11.603Z,10.23
2018-02-14T01:47:40.051Z,10.90
2018-02-14T01:50:08.458Z,11.60
2018-02-14T01:52:36.858Z,13.00
2018-02-14T01:55:05.569Z,10.60
2018-02-14T01:57:33.968Z,13.68
2018-02-14T02:00:02.514Z,13.80
2018-02-14T02:02:30.924Z,11.75
2018-02-14T02:04:59.391Z,12.65
2018-02-14T02:07:27.779Z,15.73
2018-02-14T02:09:56.163Z,12.90
2018-02-14T02:12:24.633Z,17.10
2018-02-14T02:14:53.126Z,17.45
2018-02-14T02:17:21.508Z,13.62
2018-02-14T02:19:49.928Z,11.82
2018-02-14T02:22:18.283Z,14.82
2018-02-14T02:24:46.705Z,14.35
2018-02-14T02:27:15.093Z,12.65
2018-02-14T02:29:43.482Z,17.27
2018-02-14T02:32:11.878Z,10.35
2018-02-14T02:34:40.316Z,18.40
2018-02-14T02:37:08.892Z,16.17
2018-02-14T02:39:49.020Z,17.45
2018-02-14T02:42:17.462Z,14.07
2018-02-14T02:44:45.854Z,17.45
2018-02-14T02:47:14.251Z,16.95
2018-02-14T02:49:42.644Z,14.70
2018-02-14T02:52:11.044Z,14.00
2018-02-14T02:54:39.454Z,14.43
2018-02-14T02:57:07.936Z,13.82
2018-02-14T02:59:36.335Z,14.82
2018-02-14T03:02:04.815Z,13.30
2018-02-14T03:04:33.200Z,20.05
2018-02-14T03:07:01.617Z,19.75
2018-02-14T03:09:30.008Z,20.20
2018-02-14T03:11:58.447Z,19.10
2018-02-14T03:14:26.834Z,18.05
2018-02-14T03:16:55.216Z,14.23
2018-02-14T03:19:23.616Z,14.48
2018-02-14T03:21:52.089Z,17.02
2018-02-14T03:24:20.576Z,15.90
2018-02-14T03:26:49.041Z,20.30
2018-02-14T03:29:17.408Z,16.62
2018-02-14T03:31:45.802Z,12.98
2018-02-14T03:34:14.208Z,12.68
2018-02-14T03:36:42.671Z,16.00
2018-02-14T03:39:11.043Z,13.80
2018-02-14T03:41:39.526Z,16.35
2018-02-14T03:44:07.916Z,14.90
2018-02-14T03:46:36.316Z,16.30
2018-02-14T03:49:04.717Z,13.57
2018-02-14T03:51:33.111Z,26.17
2018-02-14T03:54:01.591Z,13.85
2018-02-14T03:56:29.981Z,16.55
2018-02-14T03:58:58.386Z,15.13
2018-02-14T04:01:26.861Z,13.90
2018-02-14T04:03:55.251Z,12.57
2018-02-14T04:06:23.655Z,14.18
2018-02-14T04:08:52.056Z,20.85
2018-02-14T04:11:20.534Z,14.75
2018-02-14T04:13:49.008Z,16.25
2018-02-14T04:16:17.369Z,16.80
2018-02-14T04:18:45.754Z,16.23
2018-02-14T04:21:14.152Z,15.10
2018-02-14T04:23:42.522Z,18.67
2018-02-14T04:26:11.041Z,14.95
2018-02-14T04:28:40.154Z,19.02
2018-02-14T04:31:08.560Z,17.60
2018-02-14T04:33:37.046Z,21.37
2018-02-14T04:36:05.431Z,22.20
2018-02-14T04:38:34.075Z,16.75
2018-02-14T04:41:02.481Z,21.80
2018-02-14T04:43:30.930Z,19.77
2018-02-14T04:45:59.334Z,17.67
2018-02-14T04:48:27.856Z,18.85
2018-02-14T04:50:56.365Z,18.65
2018-02-14T04:53:24.766Z,22.37
2018-02-14T04:55:53.228Z,15.20
2018-02-14T04:58:21.629Z,18.77
2018-02-14T05:00:50.117Z,17.52
2018-02-14T05:03:18.513Z,20.12
2018-02-14T05:05:46.906Z,16.85
2018-02-14T05:08:15.379Z,15.63
2018-02-14T05:10:43.856Z,18.30
2018-02-14T05:13:12.263Z,17.00
2018-02-14T05:15:40.651Z,15.68
2018-02-14T05:18:09.047Z,19.62
2018-02-14T05:20:37.481Z,14.90
2018-02-14T05:23:05.885Z,14.07
2018-02-14T05:25:34.288Z,17.33
2018-02-14T05:28:02.677Z,19.40
2018-02-14T05:30:31.062Z,14.95
2018-02-14T05:32:59.514Z,15.00
2018-02-14T05:35:27.913Z,15.77
2018-02-14T05:37:56.405Z,15.23
2018-02-14T05:40:24.798Z,18.55
2018-02-14T05:42:53.289Z,14.85
2018-02-14T05:45:21.727Z,16.90
2018-02-14T05:47:50.109Z,19.48
2018-02-14T05:50:18.603Z,14.73
2018-02-14T05:52:46.998Z,15.45
2018-02-14T05:55:15.406Z,17.15
2018-02-14T05:57:43.807Z,19.48
2018-02-14T06:00:12.213Z,15.63
2018-02-14T06:02:40.705Z,16.55
2018-02-14T06:05:09.120Z,13.68
2018-02-14T06:07:37.523Z,18.33
2018-02-14T06:10:05.990Z,18.40
2018-02-14T06:12:34.401Z,19.90
2018-02-14T06:15:03.092Z,25.98
2018-02-14T06:17:31.491Z,17.85
2018-02-14T06:19:59.974Z,21.27
2018-02-14T06:22:28.377Z,17.62
2018-02-14T06:24:56.782Z,17.30
2018-02-14T06:27:25.265Z,18.10
2018-02-14T06:29:53.663Z,17.77
2018-02-14T06:32:22.079Z,17.15
2018-02-14T06:34:50.459Z,20.73
2018-02-14T06:37:18.906Z,23.67
2018-02-14T06:39:47.348Z,21.83
2018-02-14T06:42:15.759Z,18.52
2018-02-14T06:44:44.239Z,14.98
2018-02-14T06:47:12.660Z,15.38
2018-02-14T06:49:41.070Z,15.63
2018-02-14T06:52:09.545Z,17.35
2018-02-14T06:54:37.922Z,19.15
2018-02-14T06:57:06.422Z,19.10
2018-02-14T06:59:34.892Z,13.70
2018-02-14T07:02:03.450Z,13.70
2018-02-14T07:04:32.011Z,20.62
2018-02-14T07:07:00.505Z,13.27
2018-02-14T07:09:28.907Z,16.33
2018-02-14T07:11:57.305Z,16.95
2018-02-14T07:14:25.718Z,18.83
2018-02-14T07:16:54.246Z,13.57
2018-02-14T07:19:22.656Z,16.83
2018-02-14T07:21:51.066Z,14.55
2018-02-14T07:24:19.450Z,22.67
2018-02-14T07:26:47.847Z,17.40
2018-02-14T07:29:16.608Z,14.35
2018-02-14T07:31:45.051Z,17.65
2018-02-14T07:34:13.458Z,16.95
2018-02-14T07:36:41.856Z,14.02
2018-02-14T07:39:10.254Z,17.12
2018-02-14T07:41:38.728Z,20.42
2018-02-14T07:44:07.129Z,17.98
2018-02-14T07:46:35.558Z,23.20
2018-02-14T07:49:03.990Z,25.52
2018-02-14T07:51:32.800Z,15.82
2018-02-14T07:54:01.583Z,13.98
2018-02-14T07:56:29.998Z,20.02
2018-02-14T07:58:58.401Z,14.25
2018-02-14T08:01:26.793Z,14.60
2018-02-14T08:03:55.199Z,14.68
2018-02-14T08:06:23.680Z,14.95
2018-02-14T08:08:52.066Z,13.82
2018-02-14T08:11:20.467Z,10.75
2018-02-14T08:13:48.967Z,26.85
2018-02-14T08:16:17.366Z,12.80
2018-02-14T08:18:45.842Z,13.35
2018-02-14T08:21:14.333Z,10.50
2018-02-14T08:23:42.738Z,11.73
2018-02-14T08:26:11.155Z,15.70
2018-02-14T08:28:39.666Z,14.90
2018-02-14T08:33:42.704Z,14.10
2018-02-14T08:36:11.214Z,10.10
2018-02-14T08:38:39.633Z,12.70
2018-02-14T08:41:08.051Z,7.90
2018-02-14T08:43:36.466Z,11.75
2018-02-14T08:46:04.871Z,7.65
2018-02-14T08:48:33.267Z,12.95
2018-02-14T08:51:01.688Z,9.75
2018-02-14T08:53:30.176Z,11.60
2018-02-14T08:55:58.682Z,12.35
2018-02-14T08:58:27.088Z,13.25
2018-02-14T09:00:55.484Z,11.73
2018-02-14T09:03:23.892Z,13.13
2018-02-14T09:05:52.410Z,13.85
2018-02-14T09:08:20.835Z,8.60
2018-02-14T09:10:49.233Z,7.23
2018-02-14T09:13:17.629Z,12.83
2018-02-14T09:15:46.047Z,9.03
2018-02-14T09:18:14.528Z,10.13
2018-02-14T09:20:43.005Z,8.23
2018-02-14T09:23:11.415Z,10.73
2018-02-14T09:25:39.833Z,10.60
2018-02-14T09:28:08.230Z,11.33
2018-02-14T09:30:36.685Z,8.10
2018-02-14T09:33:05.211Z,10.73
2018-02-14T09:35:33.968Z,11.73
2018-02-14T09:38:02.663Z,8.00
2018-02-14T09:40:31.060Z,9.20
2018-02-14T09:42:59.602Z,6.80
2018-02-14T09:45:28.004Z,11.90
2018-02-14T09:47:56.427Z,12.20
2018-02-14T09:50:24.809Z,9.93
2018-02-14T09:52:53.421Z,12.98
2018-02-14T09:55:21.902Z,10.40
2018-02-14T09:57:50.412Z,9.02
2018-02-14T10:00:19.080Z,9.73
2018-02-14T10:02:47.482Z,12.27
2018-02-14T10:05:15.867Z,10.97
2018-02-14T10:07:44.335Z,7.65
2018-02-14T10:10:12.737Z,9.40
2018-02-14T10:12:41.126Z,9.23
2018-02-14T10:15:09.568Z,12.20
2018-02-14T10:17:37.954Z,8.00
2018-02-14T10:20:06.445Z,10.90
2018-02-14T10:22:34.883Z,6.30
2018-02-14T10:25:03.282Z,7.10
2018-02-14T10:27:31.741Z,11.17
2018-02-14T10:30:00.142Z,9.00
2018-02-14T10:32:28.924Z,10.90
2018-02-14T10:34:57.357Z,7.57
2018-02-14T10:37:25.755Z,12.27
2018-02-14T10:39:54.245Z,7.00
2018-02-14T10:42:22.732Z,9.90
2018-02-14T10:44:51.217Z,7.33
2018-02-14T10:47:19.622Z,6.90
2018-02-14T10:49:48.028Z,4.40
2018-02-14T10:52:16.429Z,5.07
2018-02-14T10:54:44.813Z,6.87
2018-02-14T10:57:13.359Z,7.27
2018-02-14T10:59:41.837Z,9.20
2018-02-14T11:02:10.665Z,7.23
2018-02-14T11:04:44.595Z,5.33
2018-02-14T11:07:18.949Z,8.33
2018-02-14T11:09:47.429Z,7.50
2018-02-14T11:12:16.094Z,7.30
2018-02-14T11:14:44.575Z,6.50
2018-02-14T11:17:12.961Z,7.93
2018-02-14T11:19:41.355Z,7.15
2018-02-14T11:22:09.755Z,8.32
2018-02-14T11:24:38.186Z,7.03
2018-02-14T11:27:06.716Z,4.97
2018-02-14T11:29:35.109Z,8.27
2018-02-14T11:32:03.514Z,6.65
2018-02-14T11:34:31.932Z,10.50
2018-02-14T11:37:00.329Z,8.40
2018-02-14T11:39:28.807Z,7.95
2018-02-14T11:41:57.197Z,8.10
2018-02-14T11:44:25.606Z,7.93
2018-02-14T11:46:54.027Z,10.23
2018-02-14T11:49:22.450Z,9.80
2018-02-14T11:51:50.849Z,9.57
2018-02-14T11:54:19.250Z,8.73
2018-02-14T11:56:47.720Z,7.20
2018-02-14T11:59:16.227Z,11.57
2018-02-14T12:01:44.609Z,6.00
2018-02-14T12:04:12.989Z,8.52
2018-02-14T12:06:41.480Z,7.53
2018-02-14T12:09:09.953Z,10.98
2018-02-14T12:11:38.338Z,8.05
2018-02-14T12:14:06.761Z,6.67
2018-02-14T12:16:35.161Z,6.93
2018-02-14T12:19:03.581Z,8.27
2018-02-14T12:21:32.028Z,4.10
2018-02-14T12:24:00.431Z,11.70
2018-02-14T12:26:28.838Z,10.73
2018-02-14T12:28:57.238Z,6.40
2018-02-14T12:31:25.630Z,7.73
2018-02-14T12:33:54.069Z,4.90
2018-02-14T12:36:22.461Z,5.90
2018-02-14T12:38:50.999Z,11.67
2018-02-14T12:41:19.467Z,6.20
2018-02-14T12:43:47.978Z,6.27
2018-02-14T12:46:16.445Z,8.13
2018-02-14T12:48:44.832Z,8.43
2018-02-14T12:51:13.323Z,8.17
2018-02-14T12:53:41.739Z,4.97
2018-02-14T12:56:10.147Z,9.83
2018-02-14T12:58:38.690Z,7.40
2018-02-14T13:01:07.105Z,11.40
2018-02-14T13:03:35.515Z,8.70
2018-02-14T13:06:03.920Z,8.30
2018-02-14T13:08:32.321Z,9.03
2018-02-14T13:11:00.858Z,8.87
2018-02-14T13:13:29.327Z,9.90
2018-02-14T13:15:57.706Z,12.43
2018-02-14T13:18:26.147Z,11.70
2018-02-14T13:20:54.567Z,12.90
2018-02-14T13:23:23.341Z,11.30
2018-02-14T13:25:51.731Z,11.23
2018-02-14T13:28:20.152Z,10.97
2018-02-14T13:30:48.570Z,13.30
2018-02-14T13:33:16.968Z,13.00
2018-02-14T13:35:45.713Z,16.15
2018-02-14T13:38:14.125Z,14.90
2018-02-14T13:40:42.530Z,17.20
2018-02-14T13:43:10.944Z,14.35
2018-02-14T13:45:39.369Z,15.02
2018-02-14T13:48:07.861Z,16.45
2018-02-14T13:50:36.262Z,13.68
2018-02-14T13:53:04.801Z,17.30
2018-02-14T13:55:33.385Z,20.08
2018-02-14T13:58:01.805Z,13.35
2018-02-14T14:00:30.346Z,13.48
2018-02-14T14:02:58.897Z,13.93
2018-02-14T14:05:27.311Z,16.77
2018-02-14T14:07:56.704Z,13.07
2018-02-14T14:10:25.102Z,18.00
2018-02-14T14:12:53.613Z,16.20
2018-02-14T14:15:22.096Z,19.33
2018-02-14T14:17:50.478Z,17.17
2018-02-14T14:20:19.047Z,12.52
2018-02-14T14:22:47.494Z,13.98
2018-02-14T14:25:15.888Z,15.00
2018-02-14T14:27:44.292Z,14.75
2018-02-14T14:30:12.682Z,13.80
2018-02-14T14:32:41.249Z,17.00
2018-02-14T14:35:09.745Z,20.45
2018-02-14T14:37:38.177Z,14.38
2018-02-14T14:40:06.606Z,15.45
2018-02-14T14:42:35.035Z,13.93
2018-02-14T14:45:03.428Z,12.30
2018-02-14T14:47:31.994Z,13.93
2018-02-14T14:50:00.527Z,16.02
2018-02-14T14:52:28.999Z,14.95
2018-02-14T14:54:57.435Z,15.00
2018-02-14T14:57:25.924Z,16.75
2018-02-14T14:59:54.306Z,13.25
2018-02-14T15:02:22.689Z,17.98
2018-02-14T15:04:51.176Z,24.12
2018-02-14T15:07:19.576Z,15.80
2018-02-14T15:09:48.076Z,14.85
2018-02-14T15:12:16.485Z,17.52
2018-02-14T15:14:44.962Z,14.82
2018-02-14T15:17:13.366Z,14.10
2018-02-14T15:19:41.759Z,15.70
2018-02-14T15:22:10.160Z,15.20
2018-02-14T15:24:38.596Z,15.15
2018-02-14T15:27:07.089Z,17.87
2018-02-14T15:29:35.485Z,13.27
2018-02-14T15:32:03.886Z,14.25
2018-02-14T15:34:32.294Z,14.50
2018-02-14T15:37:00.705Z,15.73
2018-02-14T15:39:29.116Z,12.07
2018-02-14T15:41:57.545Z,14.98
2018-02-14T15:44:26.009Z,13.10
2018-02-14T15:46:54.436Z,12.32
2018-02-14T15:49:22.961Z,15.63
2018-02-14T15:51:51.433Z,13.07
2018-02-14T15:54:19.941Z,14.13
2018-02-14T15:56:48.456Z,10.80
2018-02-14T15:59:16.981Z,12.82
2018-02-14T16:01:45.391Z,16.98
2018-02-14T16:04:13.778Z,12.48
2018-02-14T16:06:42.197Z,10.43
2018-02-14T16:09:10.624Z,15.15
2018-02-14T16:11:39.120Z,16.85
2018-02-14T16:14:07.629Z,13.98
2018-02-14T16:16:36.040Z,18.08
2018-02-14T16:19:04.586Z,15.35
2018-02-14T16:21:33.063Z,13.32
2018-02-14T16:24:01.551Z,16.80
2018-02-14T16:26:29.997Z,16.75
2018-02-14T16:28:58.399Z,13.27
2018-02-14T16:31:27.192Z,14.40
2018-02-14T16:33:55.620Z,13.82
2018-02-14T16:36:24.041Z,12.98
2018-02-14T16:38:52.523Z,14.30
2018-02-14T16:41:21.165Z,13.60
2018-02-14T16:43:49.779Z,11.32
2018-02-14T16:46:18.190Z,16.00
2018-02-14T16:48:46.611Z,15.05
2018-02-14T16:51:15.014Z,16.20
2018-02-14T16:53:43.502Z,17.10
2018-02-14T16:56:11.953Z,15.65
2018-02-14T16:58:40.430Z,16.10
2018-02-14T17:01:08.912Z,18.10
2018-02-14T17:03:37.302Z,15.90
2018-02-14T17:06:05.737Z,18.02
2018-02-14T17:08:34.205Z,15.60
2018-02-14T17:11:02.607Z,12.27
2018-02-14T17:13:31.059Z,14.93
2018-02-14T17:15:59.588Z,18.10
2018-02-14T17:18:27.992Z,14.55
2018-02-14T17:20:56.453Z,12.88
2018-02-14T17:23:24.835Z,14.93
2018-02-14T17:25:53.310Z,15.40
2018-02-14T17:28:21.714Z,16.25
2018-02-14T17:30:50.124Z,14.55
2018-02-14T17:33:18.535Z,13.25
2018-02-14T17:35:46.924Z,15.82
2018-02-14T17:38:15.386Z,16.95
2018-02-14T17:40:43.807Z,15.07
2018-02-14T17:43:12.210Z,13.38
2018-02-14T17:45:40.607Z,26.95
2018-02-14T17:48:09.044Z,14.57
2018-02-14T17:50:37.444Z,20.67
2018-02-14T17:53:05.847Z,14.63
2018-02-14T17:55:34.249Z,17.10
2018-02-14T17:58:02.664Z,15.93
2018-02-14T18:00:31.078Z,15.07
2018-02-14T18:03:00.445Z,17.95
2018-02-14T18:05:29.006Z,16.40
2018-02-14T18:07:57.503Z,14.82
2018-02-14T18:10:25.925Z,15.77
2018-02-14T18:12:54.309Z,18.70
2018-02-14T18:15:22.731Z,16.58
2018-02-14T18:17:51.229Z,17.83
2018-02-14T18:20:19.626Z,16.33
2018-02-14T18:22:48.311Z,15.45
2018-02-14T18:25:16.718Z,14.15
2018-02-14T18:27:45.248Z,16.90
2018-02-14T18:30:13.716Z,16.12
2018-02-14T18:32:42.135Z,15.20
2018-02-14T18:35:10.544Z,17.95
2018-02-14T18:37:38.934Z,14.38
2018-02-14T18:40:07.346Z,14.90
2018-02-14T18:42:36.645Z,18.08
2018-02-14T18:45:05.233Z,18.83
2018-02-14T18:47:33.630Z,19.08
2018-02-14T18:50:02.382Z,16.50
2018-02-14T18:52:30.797Z,18.48
2018-02-14T18:54:59.232Z,22.17
2018-02-14T18:57:27.633Z,15.85
2018-02-14T18:59:56.162Z,14.02
2018-02-14T19:02:24.698Z,14.23
2018-02-14T19:04:53.102Z,20.42
2018-02-14T19:07:21.505Z,15.07
2018-02-14T19:09:49.933Z,13.85
2018-02-14T19:12:18.333Z,16.40
2018-02-14T19:14:46.943Z,18.83
2018-02-14T19:17:15.393Z,12.55
2018-02-14T19:19:43.884Z,15.45
2018-02-14T19:22:12.349Z,23.77
2018-02-14T19:24:40.907Z,14.20
2018-02-14T19:27:09.953Z,13.30
2018-02-14T19:29:38.386Z,17.10
2018-02-14T19:32:06.906Z,21.23
2018-02-14T19:34:35.300Z,14.23
2018-02-14T19:37:03.682Z,19.95
2018-02-14T19:39:32.151Z,17.55
2018-02-14T19:42:00.564Z,15.75
2018-02-14T19:44:29.045Z,14.68
2018-02-14T19:46:57.443Z,16.27
2018-02-14T19:49:25.915Z,15.05
2018-02-14T19:51:54.320Z,16.08
2018-02-14T19:54:22.818Z,17.45
2018-02-14T19:56:51.646Z,20.67
2018-02-14T19:59:20.137Z,18.70
2018-02-14T20:01:48.613Z,14.87
2018-02-14T20:04:17.086Z,18.62
2018-02-14T20:06:45.492Z,17.37
2018-02-14T20:09:14.053Z,18.10
2018-02-14T20:11:42.474Z,16.08
2018-02-14T20:14:11.029Z,20.25
2018-02-14T20:16:39.646Z,19.08
2018-02-14T20:19:08.113Z,15.32
2018-02-14T20:21:36.497Z,21.77
2018-02-14T20:24:04.975Z,18.55
2018-02-14T20:26:33.377Z,19.50
2018-02-14T20:29:01.761Z,19.80
2018-02-14T20:31:30.526Z,15.95
2018-02-14T20:33:58.924Z,23.23
2018-02-14T20:36:27.326Z,21.90
2018-02-14T20:38:55.737Z,22.50
2018-02-14T20:41:24.241Z,18.00
2018-02-14T20:43:52.695Z,18.92
2018-02-14T20:46:21.170Z,26.27
2018-02-14T20:48:49.595Z,20.80
2018-02-14T20:51:18.159Z,17.23
2018-02-14T20:53:46.529Z,21.62
2018-02-14T20:56:15.077Z,23.30
2018-02-14T20:58:43.451Z,22.37
2018-02-14T21:01:11.873Z,21.87
2018-02-14T21:03:40.283Z,27.58
2018-02-14T21:06:08.758Z,22.20
2018-02-14T21:08:37.184Z,18.58
2018-02-14T21:11:05.571Z,21.65
2018-02-14T21:13:34.050Z,20.25
2018-02-14T21:16:02.470Z,22.70
2018-02-14T21:18:30.878Z,22.17
2018-02-14T21:20:59.262Z,23.65
2018-02-14T21:23:27.699Z,24.30
2018-02-14T21:25:56.162Z,23.90
2018-02-14T21:28:24.582Z,24.15
2018-02-14T21:30:53.073Z,25.25
2018-02-14T21:33:21.470Z,25.92
2018-02-14T21:35:49.889Z,23.33
2018-02-14T21:38:18.368Z,22.40
2018-02-14T21:40:46.905Z,24.02
2018-02-14T21:43:15.315Z,24.45
2018-02-14T21:45:43.740Z,22.85
2018-02-14T21:48:12.132Z,26.25
2018-02-14T21:50:40.575Z,25.92
2018-02-14T21:53:09.052Z,25.17
2018-02-14T21:55:37.467Z,20.65
2018-02-14T21:58:05.916Z,26.17
2018-02-14T22:00:34.294Z,28.75
2018-02-14T22:03:02.783Z,30.10
2018-02-14T22:05:31.195Z,25.37
2018-02-14T22:07:59.594Z,26.73
2018-02-14T22:10:27.965Z,25.23
2018-02-14T22:12:56.383Z,22.40
2018-02-14T22:15:24.815Z,27.90
2018-02-14T22:17:53.229Z,26.77
2018-02-14T22:20:21.697Z,23.70
2018-02-14T22:22:50.192Z,26.40
2018-02-14T22:25:18.926Z,22.67
2018-02-14T22:27:47.414Z,28.85
2018-02-14T22:30:16.815Z,25.50
2018-02-14T22:32:45.278Z,25.77
2018-02-14T22:35:13.700Z,23.33
2018-02-14T22:37:42.095Z,22.30
2018-02-14T22:40:10.499Z,24.40
2018-02-14T22:42:38.868Z,25.02
2018-02-14T22:45:07.285Z,25.65
2018-02-14T22:47:35.667Z,24.73
2018-02-14T22:50:04.113Z,23.95
2018-02-14T22:52:32.480Z,20.98
2018-02-14T22:55:00.844Z,23.02
2018-02-14T22:57:29.309Z,27.98
2018-02-14T22:59:57.678Z,32.78
2018-02-14T23:02:26.050Z,22.25
2018-02-14T23:04:54.451Z,24.73
2018-02-14T23:07:22.864Z,23.92
2018-02-14T23:09:51.427Z,24.37
2018-02-14T23:12:19.839Z,22.50
2018-02-14T23:14:48.315Z,32.50
2018-02-14T23:17:16.678Z,28.33
2018-02-14T23:19:45.053Z,35.47
2018-02-14T23:22:13.507Z,32.67
2018-02-14T23:24:42.105Z,27.90
2018-02-14T23:27:10.783Z,26.60
2018-02-14T23:29:39.445Z,33.25
2018-02-14T23:32:07.935Z,26.73
2018-02-14T23:34:36.378Z,27.45
2018-02-14T23:37:04.761Z,29.08
2018-02-14T23:39:33.159Z,30.25
2018-02-14T23:42:01.541Z,34.22
2018-02-14T23:44:30.011Z,28.35
2018-02-14T23:46:58.391Z,29.63
2018-02-14T23:49:26.762Z,25.60
2018-02-14T23:51:55.135Z,27.20
2018-02-14T23:54:23.516Z,30.12
2018-02-14T23:56:51.987Z,30.35
2018-02-14T23:59:20.393Z,28.52
